sensor_id;sensor_type;location;lat;lon;timestamp;P1;durP1;ratioP1;P2;durP2;ratioP2
60714;SDS011;46564;53.096;8.246;2023-07-29T00:01:25;15.80;;;7.85;;
60714;SDS011;46564;53.096;8.246;2023-07-29T00:06:27;15.35;;;7.90;;
60714;SDS011;46564;53.096;8.246;2023-07-29T00:11:29;15.43;;;7.88;;
60714;SDS011;46564;53.096;8.246;2023-07-29T00:16:30;14.15;;;7.95;;
60714;SDS011;46564;53.096;8.246;2023-07-29T00:21:32;12.35;;;7.07;;
60714;SDS011;46564;53.096;8.246;2023-07-29T00:26:33;19.83;;;7.10;;
60714;SDS011;46564;53.096;8.246;2023-07-29T00:31:36;12.00;;;6.63;;
60714;SDS011;46564;53.096;8.246;2023-07-29T00:36:37;15.13;;;6.63;;
60714;SDS011;46564;53.096;8.246;2023-07-29T00:41:39;11.68;;;6.43;;
60714;SDS011;46564;53.096;8.246;2023-07-29T00:46:41;14.07;;;6.45;;
60714;SDS011;46564;53.096;8.246;2023-07-29T00:51:44;17.98;;;6.72;;
60714;SDS011;46564;53.096;8.246;2023-07-29T00:56:45;14.57;;;6.85;;
60714;SDS011;46564;53.096;8.246;2023-07-29T01:01:47;22.52;;;7.68;;
60714;SDS011;46564;53.096;8.246;2023-07-29T01:17:23;36.55;;;7.15;;
60714;SDS011;46564;53.096;8.246;2023-07-29T01:22:33;31.67;;;6.47;;
60714;SDS011;46564;53.096;8.246;2023-07-29T01:27:36;17.00;;;6.57;;
60714;SDS011;46564;53.096;8.246;2023-07-29T01:37:54;30.42;;;7.30;;
60714;SDS011;46564;53.096;8.246;2023-07-29T01:42:59;16.08;;;7.05;;
60714;SDS011;46564;53.096;8.246;2023-07-29T01:48:00;12.27;;;7.30;;
60714;SDS011;46564;53.096;8.246;2023-07-29T01:53:02;12.15;;;7.80;;
60714;SDS011;46564;53.096;8.246;2023-07-29T01:58:03;10.57;;;6.70;;
60714;SDS011;46564;53.096;8.246;2023-07-29T02:03:05;11.32;;;6.88;;
60714;SDS011;46564;53.096;8.246;2023-07-29T02:08:07;11.90;;;7.13;;
60714;SDS011;46564;53.096;8.246;2023-07-29T02:13:09;13.57;;;7.22;;
60714;SDS011;46564;53.096;8.246;2023-07-29T02:18:10;10.77;;;7.25;;
60714;SDS011;46564;53.096;8.246;2023-07-29T02:23:12;14.93;;;7.53;;
60714;SDS011;46564;53.096;8.246;2023-07-29T02:28:13;12.95;;;7.72;;
60714;SDS011;46564;53.096;8.246;2023-07-29T02:33:15;13.70;;;8.18;;
60714;SDS011;46564;53.096;8.246;2023-07-29T02:38:16;13.60;;;8.38;;
60714;SDS011;46564;53.096;8.246;2023-07-29T02:43:18;14.13;;;9.00;;
60714;SDS011;46564;53.096;8.246;2023-07-29T02:48:19;17.70;;;9.82;;
60714;SDS011;46564;53.096;8.246;2023-07-29T02:53:21;22.55;;;9.95;;
60714;SDS011;46564;53.096;8.246;2023-07-29T02:58:23;18.05;;;10.40;;
60714;SDS011;46564;53.096;8.246;2023-07-29T03:03:25;16.65;;;10.80;;
60714;SDS011;46564;53.096;8.246;2023-07-29T03:08:27;18.85;;;11.68;;
60714;SDS011;46564;53.096;8.246;2023-07-29T03:13:28;22.98;;;11.35;;
60714;SDS011;46564;53.096;8.246;2023-07-29T03:18:30;17.70;;;11.25;;
60714;SDS011;46564;53.096;8.246;2023-07-29T03:23:32;25.30;;;11.50;;
60714;SDS011;46564;53.096;8.246;2023-07-29T03:28:33;18.00;;;10.45;;
60714;SDS011;46564;53.096;8.246;2023-07-29T03:33:35;19.98;;;11.20;;
60714;SDS011;46564;53.096;8.246;2023-07-29T03:38:37;16.45;;;10.40;;
60714;SDS011;46564;53.096;8.246;2023-07-29T03:43:39;19.25;;;10.38;;
60714;SDS011;46564;53.096;8.246;2023-07-29T03:48:40;19.15;;;10.45;;
60714;SDS011;46564;53.096;8.246;2023-07-29T03:53:42;17.10;;;9.85;;
60714;SDS011;46564;53.096;8.246;2023-07-29T03:58:45;23.20;;;10.85;;
60714;SDS011;46564;53.096;8.246;2023-07-29T04:03:47;17.95;;;10.45;;
60714;SDS011;46564;53.096;8.246;2023-07-29T04:08:49;18.13;;;10.95;;
60714;SDS011;46564;53.096;8.246;2023-07-29T04:13:50;21.85;;;11.15;;
60714;SDS011;46564;53.096;8.246;2023-07-29T04:18:52;18.48;;;11.02;;
60714;SDS011;46564;53.096;8.246;2023-07-29T04:23:53;17.77;;;10.73;;
60714;SDS011;46564;53.096;8.246;2023-07-29T04:28:55;20.55;;;11.18;;
60714;SDS011;46564;53.096;8.246;2023-07-29T04:33:56;19.90;;;11.98;;
60714;SDS011;46564;53.096;8.246;2023-07-29T04:38:58;22.30;;;11.90;;
60714;SDS011;46564;53.096;8.246;2023-07-29T04:43:59;24.48;;;11.93;;
60714;SDS011;46564;53.096;8.246;2023-07-29T04:49:01;27.95;;;12.63;;
60714;SDS011;46564;53.096;8.246;2023-07-29T04:54:02;23.73;;;12.38;;
60714;SDS011;46564;53.096;8.246;2023-07-29T04:59:04;21.80;;;12.60;;
60714;SDS011;46564;53.096;8.246;2023-07-29T05:04:05;24.88;;;12.23;;
60714;SDS011;46564;53.096;8.246;2023-07-29T05:09:14;24.67;;;12.35;;
60714;SDS011;46564;53.096;8.246;2023-07-29T05:14:16;22.90;;;13.00;;
60714;SDS011;46564;53.096;8.246;2023-07-29T05:19:19;23.50;;;11.98;;
60714;SDS011;46564;53.096;8.246;2023-07-29T05:24:20;24.55;;;12.02;;
60714;SDS011;46564;53.096;8.246;2023-07-29T05:29:21;25.05;;;11.50;;
60714;SDS011;46564;53.096;8.246;2023-07-29T05:34:23;24.23;;;11.77;;
60714;SDS011;46564;53.096;8.246;2023-07-29T05:39:24;25.67;;;11.80;;
60714;SDS011;46564;53.096;8.246;2023-07-29T05:44:26;27.35;;;11.40;;
60714;SDS011;46564;53.096;8.246;2023-07-29T05:49:27;19.73;;;12.02;;
60714;SDS011;46564;53.096;8.246;2023-07-29T05:54:29;21.23;;;10.95;;
60714;SDS011;46564;53.096;8.246;2023-07-29T05:59:30;23.10;;;11.90;;
60714;SDS011;46564;53.096;8.246;2023-07-29T06:04:31;22.00;;;11.88;;
60714;SDS011;46564;53.096;8.246;2023-07-29T06:09:33;18.35;;;10.27;;
60714;SDS011;46564;53.096;8.246;2023-07-29T06:14:34;16.45;;;9.90;;
60714;SDS011;46564;53.096;8.246;2023-07-29T06:19:36;21.20;;;10.73;;
60714;SDS011;46564;53.096;8.246;2023-07-29T06:24:37;17.55;;;9.68;;
60714;SDS011;46564;53.096;8.246;2023-07-29T06:29:39;19.45;;;9.68;;
60714;SDS011;46564;53.096;8.246;2023-07-29T06:34:40;19.02;;;8.68;;
60714;SDS011;46564;53.096;8.246;2023-07-29T06:39:42;21.38;;;8.50;;
60714;SDS011;46564;53.096;8.246;2023-07-29T06:44:43;15.55;;;8.65;;
60714;SDS011;46564;53.096;8.246;2023-07-29T06:49:45;17.73;;;8.27;;
60714;SDS011;46564;53.096;8.246;2023-07-29T06:54:47;15.55;;;8.48;;
60714;SDS011;46564;53.096;8.246;2023-07-29T06:59:48;17.85;;;6.72;;
60714;SDS011;46564;53.096;8.246;2023-07-29T07:04:49;13.05;;;7.00;;
60714;SDS011;46564;53.096;8.246;2023-07-29T07:09:51;15.63;;;7.15;;
60714;SDS011;46564;53.096;8.246;2023-07-29T07:14:52;12.70;;;5.57;;
60714;SDS011;46564;53.096;8.246;2023-07-29T07:19:54;11.63;;;5.85;;
60714;SDS011;46564;53.096;8.246;2023-07-29T07:24:55;10.13;;;5.22;;
60714;SDS011;46564;53.096;8.246;2023-07-29T07:29:57;24.58;;;5.70;;
60714;SDS011;46564;53.096;8.246;2023-07-29T07:34:58;11.35;;;4.95;;
60714;SDS011;46564;53.096;8.246;2023-07-29T07:40:00;11.27;;;4.63;;
60714;SDS011;46564;53.096;8.246;2023-07-29T07:45:01;16.05;;;5.40;;
60714;SDS011;46564;53.096;8.246;2023-07-29T07:50:03;21.02;;;5.38;;
60714;SDS011;46564;53.096;8.246;2023-07-29T07:55:05;9.75;;;5.25;;
60714;SDS011;46564;53.096;8.246;2023-07-29T08:00:07;11.40;;;4.40;;
60714;SDS011;46564;53.096;8.246;2023-07-29T08:05:09;23.35;;;6.18;;
60714;SDS011;46564;53.096;8.246;2023-07-29T08:10:10;9.68;;;4.65;;
60714;SDS011;46564;53.096;8.246;2023-07-29T08:15:12;15.70;;;5.15;;
60714;SDS011;46564;53.096;8.246;2023-07-29T08:20:13;11.15;;;5.05;;
60714;SDS011;46564;53.096;8.246;2023-07-29T08:25:15;11.60;;;5.00;;
60714;SDS011;46564;53.096;8.246;2023-07-29T08:30:17;14.38;;;5.60;;
60714;SDS011;46564;53.096;8.246;2023-07-29T08:35:18;15.15;;;5.05;;
60714;SDS011;46564;53.096;8.246;2023-07-29T08:40:23;11.95;;;4.88;;
60714;SDS011;46564;53.096;8.246;2023-07-29T08:45:30;10.65;;;4.28;;
60714;SDS011;46564;53.096;8.246;2023-07-29T08:50:36;16.08;;;4.65;;
60714;SDS011;46564;53.096;8.246;2023-07-29T08:55:38;8.80;;;4.38;;
60714;SDS011;46564;53.096;8.246;2023-07-29T09:00:40;14.10;;;3.28;;
60714;SDS011;46564;53.096;8.246;2023-07-29T09:05:41;23.75;;;6.45;;
60714;SDS011;46564;53.096;8.246;2023-07-29T09:10:43;10.88;;;3.65;;
60714;SDS011;46564;53.096;8.246;2023-07-29T09:15:45;15.75;;;5.97;;
60714;SDS011;46564;53.096;8.246;2023-07-29T09:20:50;7.07;;;2.63;;
60714;SDS011;46564;53.096;8.246;2023-07-29T09:25:52;4.10;;;2.40;;
60714;SDS011;46564;53.096;8.246;2023-07-29T09:31:02;10.93;;;2.80;;
60714;SDS011;46564;53.096;8.246;2023-07-29T09:36:10;6.22;;;2.60;;
60714;SDS011;46564;53.096;8.246;2023-07-29T09:41:12;5.75;;;2.42;;
60714;SDS011;46564;53.096;8.246;2023-07-29T09:46:14;5.05;;;2.40;;
60714;SDS011;46564;53.096;8.246;2023-07-29T09:51:16;5.45;;;2.20;;
60714;SDS011;46564;53.096;8.246;2023-07-29T09:56:17;3.60;;;1.80;;
60714;SDS011;46564;53.096;8.246;2023-07-29T10:01:25;5.18;;;2.30;;
60714;SDS011;46564;53.096;8.246;2023-07-29T10:06:27;3.08;;;1.70;;
60714;SDS011;46564;53.096;8.246;2023-07-29T10:11:29;3.15;;;1.65;;
60714;SDS011;46564;53.096;8.246;2023-07-29T10:16:31;3.55;;;1.83;;
60714;SDS011;46564;53.096;8.246;2023-07-29T10:21:33;2.88;;;1.30;;
60714;SDS011;46564;53.096;8.246;2023-07-29T10:26:38;2.63;;;1.48;;
60714;SDS011;46564;53.096;8.246;2023-07-29T10:31:45;8.73;;;1.75;;
60714;SDS011;46564;53.096;8.246;2023-07-29T10:36:47;4.35;;;1.50;;
60714;SDS011;46564;53.096;8.246;2023-07-29T10:42:00;6.07;;;1.98;;
60714;SDS011;46564;53.096;8.246;2023-07-29T10:47:10;4.88;;;1.60;;
60714;SDS011;46564;53.096;8.246;2023-07-29T10:57:38;3.47;;;1.50;;
60714;SDS011;46564;53.096;8.246;2023-07-29T11:02:40;3.33;;;1.70;;
60714;SDS011;46564;53.096;8.246;2023-07-29T11:07:45;8.20;;;1.90;;
60714;SDS011;46564;53.096;8.246;2023-07-29T11:12:49;4.47;;;1.50;;
60714;SDS011;46564;53.096;8.246;2023-07-29T11:17:52;4.95;;;1.60;;
60714;SDS011;46564;53.096;8.246;2023-07-29T11:22:54;4.28;;;1.85;;
60714;SDS011;46564;53.096;8.246;2023-07-29T11:27:57;3.75;;;1.63;;
60714;SDS011;46564;53.096;8.246;2023-07-29T11:33:02;4.97;;;1.85;;
60714;SDS011;46564;53.096;8.246;2023-07-29T11:38:04;6.00;;;1.52;;
60714;SDS011;46564;53.096;8.246;2023-07-29T11:43:05;5.95;;;1.98;;
60714;SDS011;46564;53.096;8.246;2023-07-29T11:48:07;7.20;;;1.95;;
60714;SDS011;46564;53.096;8.246;2023-07-29T11:53:08;3.85;;;1.60;;
60714;SDS011;46564;53.096;8.246;2023-07-29T11:58:12;4.05;;;1.70;;
60714;SDS011;46564;53.096;8.246;2023-07-29T12:03:13;4.68;;;1.67;;
60714;SDS011;46564;53.096;8.246;2023-07-29T12:08:15;3.60;;;1.63;;
60714;SDS011;46564;53.096;8.246;2023-07-29T12:13:17;3.55;;;1.70;;
60714;SDS011;46564;53.096;8.246;2023-07-29T12:18:19;5.65;;;1.35;;
60714;SDS011;46564;53.096;8.246;2023-07-29T12:23:30;5.45;;;1.65;;
60714;SDS011;46564;53.096;8.246;2023-07-29T12:28:32;3.65;;;1.40;;
60714;SDS011;46564;53.096;8.246;2023-07-29T12:33:37;3.13;;;1.50;;
60714;SDS011;46564;53.096;8.246;2023-07-29T12:38:38;3.92;;;1.20;;
60714;SDS011;46564;53.096;8.246;2023-07-29T12:43:40;3.40;;;1.10;;
60714;SDS011;46564;53.096;8.246;2023-07-29T12:48:41;3.05;;;1.30;;
60714;SDS011;46564;53.096;8.246;2023-07-29T12:53:43;6.38;;;1.65;;
60714;SDS011;46564;53.096;8.246;2023-07-29T12:58:44;2.90;;;1.40;;
60714;SDS011;46564;53.096;8.246;2023-07-29T13:03:45;2.45;;;1.20;;
60714;SDS011;46564;53.096;8.246;2023-07-29T13:08:48;4.75;;;1.38;;
60714;SDS011;46564;53.096;8.246;2023-07-29T13:13:49;5.53;;;1.45;;
60714;SDS011;46564;53.096;8.246;2023-07-29T13:18:51;2.55;;;1.20;;
60714;SDS011;46564;53.096;8.246;2023-07-29T13:23:53;3.20;;;1.20;;
60714;SDS011;46564;53.096;8.246;2023-07-29T13:28:54;4.32;;;1.48;;
60714;SDS011;46564;53.096;8.246;2023-07-29T13:33:56;1.95;;;1.20;;
60714;SDS011;46564;53.096;8.246;2023-07-29T13:38:57;3.45;;;1.42;;
60714;SDS011;46564;53.096;8.246;2023-07-29T13:43:59;1.80;;;1.10;;
60714;SDS011;46564;53.096;8.246;2023-07-29T13:49:00;2.65;;;1.42;;
60714;SDS011;46564;53.096;8.246;2023-07-29T13:54:01;3.47;;;1.55;;
60714;SDS011;46564;53.096;8.246;2023-07-29T13:59:03;3.65;;;1.40;;
60714;SDS011;46564;53.096;8.246;2023-07-29T14:04:04;5.93;;;2.00;;
60714;SDS011;46564;53.096;8.246;2023-07-29T14:09:06;5.95;;;2.22;;
60714;SDS011;46564;53.096;8.246;2023-07-29T14:14:08;4.13;;;1.90;;
60714;SDS011;46564;53.096;8.246;2023-07-29T14:19:10;8.95;;;1.90;;
60714;SDS011;46564;53.096;8.246;2023-07-29T14:24:12;5.25;;;2.08;;
60714;SDS011;46564;53.096;8.246;2023-07-29T14:29:14;4.05;;;1.90;;
60714;SDS011;46564;53.096;8.246;2023-07-29T14:34:18;4.13;;;2.10;;
60714;SDS011;46564;53.096;8.246;2023-07-29T14:39:19;4.47;;;2.30;;
60714;SDS011;46564;53.096;8.246;2023-07-29T14:54:26;6.13;;;3.10;;
60714;SDS011;46564;53.096;8.246;2023-07-29T14:59:28;9.88;;;2.90;;
60714;SDS011;46564;53.096;8.246;2023-07-29T15:04:29;7.90;;;3.35;;
60714;SDS011;46564;53.096;8.246;2023-07-29T15:09:31;6.50;;;3.05;;
60714;SDS011;46564;53.096;8.246;2023-07-29T15:14:32;6.35;;;2.90;;
60714;SDS011;46564;53.096;8.246;2023-07-29T15:19:34;6.15;;;2.78;;
60714;SDS011;46564;53.096;8.246;2023-07-29T15:24:35;5.07;;;2.22;;
60714;SDS011;46564;53.096;8.246;2023-07-29T15:29:37;5.70;;;2.10;;
60714;SDS011;46564;53.096;8.246;2023-07-29T15:34:39;5.38;;;1.63;;
60714;SDS011;46564;53.096;8.246;2023-07-29T15:39:40;4.22;;;1.92;;
60714;SDS011;46564;53.096;8.246;2023-07-29T15:44:43;5.70;;;2.10;;
60714;SDS011;46564;53.096;8.246;2023-07-29T15:49:45;5.72;;;1.70;;
60714;SDS011;46564;53.096;8.246;2023-07-29T15:54:46;4.55;;;1.92;;
60714;SDS011;46564;53.096;8.246;2023-07-29T15:59:48;8.38;;;1.80;;
60714;SDS011;46564;53.096;8.246;2023-07-29T16:04:50;7.10;;;1.90;;
60714;SDS011;46564;53.096;8.246;2023-07-29T16:09:51;4.15;;;1.67;;
60714;SDS011;46564;53.096;8.246;2023-07-29T16:14:52;5.85;;;2.53;;
60714;SDS011;46564;53.096;8.246;2023-07-29T16:19:55;6.50;;;2.35;;
60714;SDS011;46564;53.096;8.246;2023-07-29T16:24:58;7.15;;;1.55;;
60714;SDS011;46564;53.096;8.246;2023-07-29T16:30:00;4.97;;;2.15;;
60714;SDS011;46564;53.096;8.246;2023-07-29T16:35:03;6.82;;;2.10;;
60714;SDS011;46564;53.096;8.246;2023-07-29T16:40:05;6.60;;;3.47;;
60714;SDS011;46564;53.096;8.246;2023-07-29T16:45:07;6.07;;;2.42;;
60714;SDS011;46564;53.096;8.246;2023-07-29T16:50:09;4.78;;;2.05;;
60714;SDS011;46564;53.096;8.246;2023-07-29T16:55:11;4.18;;;1.55;;
60714;SDS011;46564;53.096;8.246;2023-07-29T17:00:13;6.53;;;2.28;;
60714;SDS011;46564;53.096;8.246;2023-07-29T17:05:14;4.97;;;1.90;;
60714;SDS011;46564;53.096;8.246;2023-07-29T17:10:16;5.07;;;1.98;;
60714;SDS011;46564;53.096;8.246;2023-07-29T17:15:17;7.65;;;1.77;;
60714;SDS011;46564;53.096;8.246;2023-07-29T17:20:18;4.70;;;1.75;;
60714;SDS011;46564;53.096;8.246;2023-07-29T17:25:20;2.65;;;1.50;;
60714;SDS011;46564;53.096;8.246;2023-07-29T17:30:21;3.88;;;1.67;;
60714;SDS011;46564;53.096;8.246;2023-07-29T17:35:23;5.15;;;1.48;;
60714;SDS011;46564;53.096;8.246;2023-07-29T17:40:24;3.22;;;1.50;;
60714;SDS011;46564;53.096;8.246;2023-07-29T17:45:26;5.90;;;1.60;;
60714;SDS011;46564;53.096;8.246;2023-07-29T17:50:28;3.90;;;1.50;;
60714;SDS011;46564;53.096;8.246;2023-07-29T17:55:29;2.45;;;1.30;;
60714;SDS011;46564;53.096;8.246;2023-07-29T18:00:31;5.85;;;1.52;;
60714;SDS011;46564;53.096;8.246;2023-07-29T18:05:34;4.60;;;1.90;;
60714;SDS011;46564;53.096;8.246;2023-07-29T18:10:39;2.88;;;1.50;;
60714;SDS011;46564;53.096;8.246;2023-07-29T18:15:41;5.88;;;1.73;;
60714;SDS011;46564;53.096;8.246;2023-07-29T18:20:43;4.40;;;1.75;;
60714;SDS011;46564;53.096;8.246;2023-07-29T18:25:44;6.68;;;1.88;;
60714;SDS011;46564;53.096;8.246;2023-07-29T18:30:47;4.60;;;1.80;;
60714;SDS011;46564;53.096;8.246;2023-07-29T18:35:49;3.75;;;1.98;;
60714;SDS011;46564;53.096;8.246;2023-07-29T18:40:50;5.05;;;1.70;;
60714;SDS011;46564;53.096;8.246;2023-07-29T18:45:52;7.55;;;2.03;;
60714;SDS011;46564;53.096;8.246;2023-07-29T18:50:54;5.68;;;1.90;;
60714;SDS011;46564;53.096;8.246;2023-07-29T18:55:56;8.40;;;2.33;;
60714;SDS011;46564;53.096;8.246;2023-07-29T19:00:57;4.50;;;1.98;;
60714;SDS011;46564;53.096;8.246;2023-07-29T19:05:59;3.40;;;1.80;;
60714;SDS011;46564;53.096;8.246;2023-07-29T19:11:01;9.07;;;2.70;;
60714;SDS011;46564;53.096;8.246;2023-07-29T19:16:02;4.28;;;1.90;;
60714;SDS011;46564;53.096;8.246;2023-07-29T19:21:04;8.23;;;2.00;;
60714;SDS011;46564;53.096;8.246;2023-07-29T19:26:05;3.80;;;2.13;;
60714;SDS011;46564;53.096;8.246;2023-07-29T19:31:07;4.45;;;2.20;;
60714;SDS011;46564;53.096;8.246;2023-07-29T19:36:14;3.97;;;2.40;;
60714;SDS011;46564;53.096;8.246;2023-07-29T19:41:16;4.70;;;1.83;;
60714;SDS011;46564;53.096;8.246;2023-07-29T19:46:17;4.13;;;2.40;;
60714;SDS011;46564;53.096;8.246;2023-07-29T19:51:39;5.38;;;2.53;;
60714;SDS011;46564;53.096;8.246;2023-07-29T19:56:40;6.32;;;2.75;;
60714;SDS011;46564;53.096;8.246;2023-07-29T20:01:42;4.93;;;2.80;;
60714;SDS011;46564;53.096;8.246;2023-07-29T20:06:43;7.35;;;2.67;;
60714;SDS011;46564;53.096;8.246;2023-07-29T20:11:45;7.47;;;3.17;;
60714;SDS011;46564;53.096;8.246;2023-07-29T20:16:46;6.10;;;2.58;;
60714;SDS011;46564;53.096;8.246;2023-07-29T20:21:48;6.50;;;3.30;;
60714;SDS011;46564;53.096;8.246;2023-07-29T20:26:49;9.88;;;4.18;;
60714;SDS011;46564;53.096;8.246;2023-07-29T20:31:50;7.57;;;3.40;;
60714;SDS011;46564;53.096;8.246;2023-07-29T20:36:52;9.60;;;3.55;;
60714;SDS011;46564;53.096;8.246;2023-07-29T20:41:54;6.00;;;3.03;;
60714;SDS011;46564;53.096;8.246;2023-07-29T20:46:55;7.38;;;3.22;;
60714;SDS011;46564;53.096;8.246;2023-07-29T20:51:56;8.85;;;3.22;;
60714;SDS011;46564;53.096;8.246;2023-07-29T20:56:58;6.65;;;3.03;;
60714;SDS011;46564;53.096;8.246;2023-07-29T21:01:59;5.57;;;2.60;;
60714;SDS011;46564;53.096;8.246;2023-07-29T21:07:03;10.60;;;2.70;;
60714;SDS011;46564;53.096;8.246;2023-07-29T21:12:04;7.07;;;2.28;;
60714;SDS011;46564;53.096;8.246;2023-07-29T21:17:06;7.90;;;1.15;;
60714;SDS011;46564;53.096;8.246;2023-07-29T21:22:08;5.15;;;1.30;;
60714;SDS011;46564;53.096;8.246;2023-07-29T21:27:09;2.00;;;1.02;;
60714;SDS011;46564;53.096;8.246;2023-07-29T21:32:10;1.85;;;1.10;;
60714;SDS011;46564;53.096;8.246;2023-07-29T21:37:12;5.18;;;2.03;;
60714;SDS011;46564;53.096;8.246;2023-07-29T21:42:29;3.20;;;1.75;;
60714;SDS011;46564;53.096;8.246;2023-07-29T21:47:31;3.92;;;1.45;;
60714;SDS011;46564;53.096;8.246;2023-07-29T21:52:32;3.55;;;1.63;;
60714;SDS011;46564;53.096;8.246;2023-07-29T21:57:34;2.88;;;1.70;;
60714;SDS011;46564;53.096;8.246;2023-07-29T22:02:37;6.32;;;2.08;;
60714;SDS011;46564;53.096;8.246;2023-07-29T22:07:38;3.67;;;1.77;;
60714;SDS011;46564;53.096;8.246;2023-07-29T22:12:40;4.47;;;1.52;;
60714;SDS011;46564;53.096;8.246;2023-07-29T22:17:41;7.40;;;2.20;;
60714;SDS011;46564;53.096;8.246;2023-07-29T22:22:43;2.97;;;1.70;;
60714;SDS011;46564;53.096;8.246;2023-07-29T22:27:44;6.45;;;1.95;;
60714;SDS011;46564;53.096;8.246;2023-07-29T22:32:46;5.22;;;2.15;;
60714;SDS011;46564;53.096;8.246;2023-07-29T22:37:48;9.60;;;2.42;;
60714;SDS011;46564;53.096;8.246;2023-07-29T22:42:49;6.53;;;2.70;;
60714;SDS011;46564;53.096;8.246;2023-07-29T22:47:51;8.60;;;2.72;;
60714;SDS011;46564;53.096;8.246;2023-07-29T22:52:53;6.55;;;2.88;;
60714;SDS011;46564;53.096;8.246;2023-07-29T22:57:55;11.73;;;3.20;;
60714;SDS011;46564;53.096;8.246;2023-07-29T23:02:57;16.45;;;3.95;;
60714;SDS011;46564;53.096;8.246;2023-07-29T23:07:58;6.50;;;3.72;;
60714;SDS011;46564;53.096;8.246;2023-07-29T23:13:00;24.55;;;4.32;;
60714;SDS011;46564;53.096;8.246;2023-07-29T23:18:02;8.13;;;3.72;;
60714;SDS011;46564;53.096;8.246;2023-07-29T23:23:04;11.98;;;4.78;;
60714;SDS011;46564;53.096;8.246;2023-07-29T23:28:05;7.45;;;3.90;;
60714;SDS011;46564;53.096;8.246;2023-07-29T23:33:07;6.72;;;3.92;;
60714;SDS011;46564;53.096;8.246;2023-07-29T23:38:09;12.30;;;4.70;;
60714;SDS011;46564;53.096;8.246;2023-07-29T23:43:10;8.75;;;4.78;;
60714;SDS011;46564;53.096;8.246;2023-07-29T23:48:12;9.95;;;5.05;;
60714;SDS011;46564;53.096;8.246;2023-07-29T23:53:13;7.93;;;5.18;;
60714;SDS011;46564;53.096;8.246;2023-07-29T23:58:14;8.52;;;5.00;;
